Airfield :







YOU CAN JOIN US ON...

 
LOGIN :

Register | Disclaimer

   EN    FR    IT 

 









Legend :    VFR   Marginal VFR   IFR   Intensive IFR   Very Intensive IFR
Visi :
Ceiling :
>= 8 km
>= 3000ft
5 to 8 km
1000 to 3000 ft
1500m to 5 km
500 to 1000 ft
800 to 1500m
200 to 500 ft
< 800m
< 200 ft
Symbols :   Thunderstorms  Fog  Heavy snow  Heavy precipitations  Wind > 20 kt






- Airport Elevation : 20 ft
- IATA code : BOS


KBOS - General Edward Lawrence Logan International

CURRENT METAR :
  • 080154Z 31006KT 10SM FEW130 SCT220 02/M07 A3019 RMK AO2 SLP222 T00221072

EXPIRED METARs :
  • 080054Z 30007KT 10SM FEW130 FEW220 02/M08 A3018 RMK AO2 SLP220 T00221078
  • 072354Z 28006KT 10SM FEW140 FEW220 03/M08 A3017 RMK AO2 SLP214 T00281078 10061 20028 50017

TAF KBOS
Valid from the 08 at 00:00 until the 09 at 06:00 UTC


072321Z 0800/0906 27007KT P6SM BKN250
FM080800 30005KT P6SM OVC120
FM081400 07007KT P6SM OVC045
FM081800 07007KT P6SM OVC035
FM082000 06009KT P6SM VCSH OVC025
FM082200 05008KT 6SM -SHRASN OVC020
FM090200 34008KT 2SM -SHSN BR OVC015
KZBW FIR / North America



MET'MAP, your aeronautical weather chart ! - Copyright ORBIFLY December 2007 - Disclaimer

ORBIFLY MET'MAP TEAM :

Programming & Development : Alexandra Zaïnal
Concept & original design : Baudouin d'Aumeries
Assistance for programming : Marc-Olivier Méhu
Technical & hardware support : Manuel Goepfert

Contact : metmap@orbifly.com




SOURCES & CREDITS :

   NOAA